Gas Alice — 5BVA4 — position and weather

sailwx.info

Track history (hours):
 
Tides and Currents Weather Stations Pressure Air Temp Water Temp Dewpoint Dewpoint Depression Visibility Wind Speed Wind Dir Waves Ship Positions

Gas Alice

Last reported at 2017-Dec-11 16:59 UTC. Time now 2017-Dec-13 01:21 UTC.
Position N 37°55' W 008°52'.

Length 96 m; draft 5.2 m.

Type: Tanker. MMSI: 209137000.

Date/timePositionNaut miles runAvg speedWind from/ knotsBaromVisibWave heightAir tempDewpointWater temp
2017-Dec-11 16:59N 37°55' W 008°52'0 0.0
2017-Dec-11 16:29N 37°55' W 008°52'0 0.1
2017-Dec-11 15:59N 37°55' W 008°52'0 0.0
2017-Dec-11 15:29N 37°55' W 008°52'0 0.2
2017-Dec-11 15:00N 37°55' W 008°52'1 2.5
2017-Dec-11 14:30N 37°54' W 008°51'4 7.6
2017-Dec-11 14:00N 37°51' W 008°55'4 7.2
2017-Dec-11 13:30N 37°50' W 008°60'3 6.7
2017-Dec-11 13:00N 37°50' W 009°04'1 1.4
2017-Dec-11 12:18N 37°50' W 009°03'1 1.9
2017-Dec-11 11:59N 37°49' W 009°02'1 1.5
2017-Dec-11 11:26N 37°49' W 009°01'1 1.3
2017-Dec-11 10:59N 37°49' W 009°01'1 1.7
2017-Dec-11 10:30N 37°49' W 008°60'1 1.7
2017-Dec-11 10:00N 37°49' W 008°58'1 1.6
2017-Dec-11 09:31N 37°48' W 008°58'1 1.1
2017-Dec-11 09:00N 37°48' W 008°57'1 1.2
2017-Dec-11 08:30N 37°48' W 008°57'3 6.1
2017-Dec-11 08:00N 37°47' W 009°01'0 0.8
2017-Dec-11 07:30N 37°47' W 009°01'1 2.2
2017-Dec-11 06:54N 37°48' W 009°00'1 1.9
2017-Dec-11 06:29N 37°48' W 008°59'1 1.7
2017-Dec-11 06:00N 37°48' W 008°58'0 0.8
2017-Dec-11 05:30N 37°48' W 008°59'1 1.4
2017-Dec-11 05:00N 37°48' W 008°58'1 1.9
2017-Dec-11 04:29N 37°48' W 008°57'1 1.5
2017-Dec-11 04:00N 37°49' W 008°57'0 0.5
2017-Dec-11 03:30N 37°49' W 008°57'0 0.7
2017-Dec-11 03:00N 37°49' W 008°57'1 1.5
2017-Dec-11 02:30N 37°50' W 008°57'1 2.1
2017-Dec-11 02:00N 37°51' W 008°56'1 1.1
2017-Dec-11 01:30N 37°51' W 008°56'0 0.7
2017-Dec-11 01:00N 37°51' W 008°57'0 0.6
2017-Dec-11 00:30N 37°51' W 008°57'0 0.3
2017-Dec-11 00:00N 37°51' W 008°57'1 2.2
2017-Dec-10 23:30N 37°51' W 008°56'2 3.4
2017-Dec-10 23:00N 37°53' W 008°54'2 3.7
2017-Dec-10 22:30N 37°54' W 008°53'1 2.0
2017-Dec-10 21:59N 37°55' W 008°52'0 0.2
2017-Dec-10 21:29N 37°55' W 008°52'0 0.5
2017-Dec-10 20:59N 37°54' W 008°52'0 0.6
2017-Dec-10 20:28N 37°55' W 008°52'0 0.1
2017-Dec-10 19:55N 37°55' W 008°52'0 0.0
2017-Dec-10 19:28N 37°55' W 008°52'0 0.0
2017-Dec-10 18:58N 37°55' W 008°52'0 0.0
2017-Dec-10 18:28N 37°55' W 008°52'0 0.0
2017-Dec-10 17:55N 37°55' W 008°52'0 0.0
2017-Dec-10 17:22N 37°55' W 008°52'0 0.0
2017-Dec-10 16:58N 37°55' W 008°52'0 0.0
2017-Dec-10 16:28N 37°55' W 008°52'0 0.0
2017-Dec-10 15:58N 37°55' W 008°52'0 0.0
2017-Dec-10 15:28N 37°55' W 008°52'0 0.0
2017-Dec-10 14:58N 37°55' W 008°52'0 0.0
2017-Dec-10 14:28N 37°54' W 008°52'0 0.0
2017-Dec-10 13:58N 37°55' W 008°52'0 0.0
2017-Dec-10 13:28N 37°55' W 008°52'0 0.0
2017-Dec-10 12:58N 37°55' W 008°52'0 0.0
2017-Dec-10 12:28N 37°54' W 008°52'0 0.0
2017-Dec-10 11:58N 37°55' W 008°52'0 0.0
2017-Dec-10 11:28N 37°54' W 008°52'0 0.0
2017-Dec-10 10:58N 37°54' W 008°52'0 0.0
2017-Dec-10 10:28N 37°55' W 008°52'0 0.0
2017-Dec-10 09:58N 37°54' W 008°52'0 0.0
2017-Dec-10 09:28N 37°54' W 008°52'0 0.0
2017-Dec-10 08:58N 37°55' W 008°52'0 0.0
2017-Dec-10 08:28N 37°54' W 008°52'0 0.0
2017-Dec-10 07:58N 37°54' W 008°52'0 0.0
2017-Dec-10 07:28N 37°54' W 008°52'0 0.0
2017-Dec-10 06:55N 37°54' W 008°52'0 0.1
2017-Dec-10 06:28N 37°54' W 008°52'1 2.7
2017-Dec-10 06:00N 37°54' W 008°53'4 8.9
2017-Dec-10 05:31N 37°55' W 008°59'612.0
2017-Dec-10 05:01N 37°58' W 009°06'612.5
2017-Dec-10 04:30N 38°01' W 009°13'613.0
2017-Dec-10 04:00N 38°04' W 009°20'3212.3
2017-Dec-10 01:24N 38°22' W 009°54'711.2
2017-Dec-10 00:47N 38°26' W 010°00'510.4
2017-Dec-10 00:17N 38°23' W 009°55'3510.9
2017-Dec-09 21:04N 38°56' W 010°12'111.6
2017-Dec-09 21:01N 38°56' W 010°12'14810.1
2017-Dec-09 06:25N 41°08' W 008°44'3 7.2
2017-Dec-09 06:00N 41°11' W 008°43'0 0.2
2017-Dec-09 05:30N 41°11' W 008°43'0 0.0
2017-Dec-07 17:02N 41°11' W 008°43'0 0.0
2017-Dec-07 17:00N 41°11' W 008°43'1 2.5
2017-Dec-07 16:30N 41°10' W 008°42'  
Track history (hours):
 
Tides and Currents Weather Stations Pressure Air Temp Water Temp Dewpoint Dewpoint Depression Visibility Wind Speed Wind Dir Waves Ship Positions

Gas Alice

Last reported at 2017-Dec-11 16:59 UTC. Time now 2017-Dec-13 01:21 UTC.
Position N 37°55' W 008°52'.

Length 96 m; draft 5.2 m.

Type: Tanker. MMSI: 209137000.

Date/timePositionNaut miles runAvg speedWind from/ knotsBaromVisibWave heightAir tempDewpointWater temp
2017-Dec-11 16:59N 37°55' W 008°52'0 0.0
2017-Dec-11 16:29N 37°55' W 008°52'0 0.1
2017-Dec-11 15:59N 37°55' W 008°52'0 0.0
2017-Dec-11 15:29N 37°55' W 008°52'0 0.2
2017-Dec-11 15:00N 37°55' W 008°52'1 2.5
2017-Dec-11 14:30N 37°54' W 008°51'4 7.6
2017-Dec-11 14:00N 37°51' W 008°55'4 7.2
2017-Dec-11 13:30N 37°50' W 008°60'3 6.7
2017-Dec-11 13:00N 37°50' W 009°04'1 1.4
2017-Dec-11 12:18N 37°50' W 009°03'1 1.9
2017-Dec-11 11:59N 37°49' W 009°02'1 1.5
2017-Dec-11 11:26N 37°49' W 009°01'1 1.3
2017-Dec-11 10:59N 37°49' W 009°01'1 1.7
2017-Dec-11 10:30N 37°49' W 008°60'1 1.7
2017-Dec-11 10:00N 37°49' W 008°58'1 1.6
2017-Dec-11 09:31N 37°48' W 008°58'1 1.1
2017-Dec-11 09:00N 37°48' W 008°57'1 1.2
2017-Dec-11 08:30N 37°48' W 008°57'3 6.1
2017-Dec-11 08:00N 37°47' W 009°01'0 0.8
2017-Dec-11 07:30N 37°47' W 009°01'1 2.2
2017-Dec-11 06:54N 37°48' W 009°00'1 1.9
2017-Dec-11 06:29N 37°48' W 008°59'1 1.7
2017-Dec-11 06:00N 37°48' W 008°58'0 0.8
2017-Dec-11 05:30N 37°48' W 008°59'1 1.4
2017-Dec-11 05:00N 37°48' W 008°58'1 1.9
2017-Dec-11 04:29N 37°48' W 008°57'1 1.5
2017-Dec-11 04:00N 37°49' W 008°57'0 0.5
2017-Dec-11 03:30N 37°49' W 008°57'0 0.7
2017-Dec-11 03:00N 37°49' W 008°57'1 1.5
2017-Dec-11 02:30N 37°50' W 008°57'1 2.1
2017-Dec-11 02:00N 37°51' W 008°56'1 1.1
2017-Dec-11 01:30N 37°51' W 008°56'0 0.7
2017-Dec-11 01:00N 37°51' W 008°57'0 0.6
2017-Dec-11 00:30N 37°51' W 008°57'0 0.3
2017-Dec-11 00:00N 37°51' W 008°57'1 2.2
2017-Dec-10 23:30N 37°51' W 008°56'2 3.4
2017-Dec-10 23:00N 37°53' W 008°54'2 3.7
2017-Dec-10 22:30N 37°54' W 008°53'1 2.0
2017-Dec-10 21:59N 37°55' W 008°52'0 0.2
2017-Dec-10 21:29N 37°55' W 008°52'0 0.5
2017-Dec-10 20:59N 37°54' W 008°52'0 0.6
2017-Dec-10 20:28N 37°55' W 008°52'0 0.1
2017-Dec-10 19:55N 37°55' W 008°52'0 0.0
2017-Dec-10 19:28N 37°55' W 008°52'0 0.0
2017-Dec-10 18:58N 37°55' W 008°52'0 0.0
2017-Dec-10 18:28N 37°55' W 008°52'0 0.0
2017-Dec-10 17:55N 37°55' W 008°52'0 0.0
2017-Dec-10 17:22N 37°55' W 008°52'0 0.0
2017-Dec-10 16:58N 37°55' W 008°52'0 0.0
2017-Dec-10 16:28N 37°55' W 008°52'0 0.0
2017-Dec-10 15:58N 37°55' W 008°52'0 0.0
2017-Dec-10 15:28N 37°55' W 008°52'0 0.0
2017-Dec-10 14:58N 37°55' W 008°52'0 0.0
2017-Dec-10 14:28N 37°54' W 008°52'0 0.0
2017-Dec-10 13:58N 37°55' W 008°52'0 0.0
2017-Dec-10 13:28N 37°55' W 008°52'0 0.0
2017-Dec-10 12:58N 37°55' W 008°52'0 0.0
2017-Dec-10 12:28N 37°54' W 008°52'0 0.0
2017-Dec-10 11:58N 37°55' W 008°52'0 0.0
2017-Dec-10 11:28N 37°54' W 008°52'0 0.0
2017-Dec-10 10:58N 37°54' W 008°52'0 0.0
2017-Dec-10 10:28N 37°55' W 008°52'0 0.0
2017-Dec-10 09:58N 37°54' W 008°52'0 0.0
2017-Dec-10 09:28N 37°54' W 008°52'0 0.0
2017-Dec-10 08:58N 37°55' W 008°52'0 0.0
2017-Dec-10 08:28N 37°54' W 008°52'0 0.0
2017-Dec-10 07:58N 37°54' W 008°52'0 0.0
2017-Dec-10 07:28N 37°54' W 008°52'0 0.0
2017-Dec-10 06:55N 37°54' W 008°52'0 0.1
2017-Dec-10 06:28N 37°54' W 008°52'1 2.7
2017-Dec-10 06:00N 37°54' W 008°53'4 8.9
2017-Dec-10 05:31N 37°55' W 008°59'612.0
2017-Dec-10 05:01N 37°58' W 009°06'612.5
2017-Dec-10 04:30N 38°01' W 009°13'613.0
2017-Dec-10 04:00N 38°04' W 009°20'3212.3
2017-Dec-10 01:24N 38°22' W 009°54'711.2
2017-Dec-10 00:47N 38°26' W 010°00'510.4
2017-Dec-10 00:17N 38°23' W 009°55'3510.9
2017-Dec-09 21:04N 38°56' W 010°12'111.6
2017-Dec-09 21:01N 38°56' W 010°12'14810.1
2017-Dec-09 06:25N 41°08' W 008°44'3 7.2
2017-Dec-09 06:00N 41°11' W 008°43'0 0.2
2017-Dec-09 05:30N 41°11' W 008°43'0 0.0
2017-Dec-07 17:02N 41°11' W 008°43'0 0.0
2017-Dec-07 17:00N 41°11' W 008°43'1 2.5
2017-Dec-07 16:30N 41°10' W 008°42'  

Dump ship's entire track history